createdAt,value
2022-12-19T00:01:22.908Z,16.42
2022-12-19T00:03:51.410Z,14.48
2022-12-19T00:06:19.110Z,17.23
2022-12-19T00:08:47.126Z,16.17
2022-12-19T00:11:14.951Z,18.58
2022-12-19T00:13:42.966Z,15.40
2022-12-19T00:16:21.087Z,14.88
2022-12-19T00:18:49.190Z,15.63
2022-12-19T00:21:18.873Z,17.45
2022-12-19T00:23:46.111Z,14.55
2022-12-19T00:26:14.404Z,14.65
2022-12-19T00:28:42.736Z,13.10
2022-12-19T00:31:10.541Z,16.03
2022-12-19T00:33:37.847Z,16.75
2022-12-19T00:36:13.947Z,12.95
2022-12-19T00:38:42.188Z,15.75
2022-12-19T00:41:12.423Z,16.45
2022-12-19T00:43:40.256Z,14.00
2022-12-19T00:46:09.273Z,17.00
2022-12-19T00:48:37.066Z,14.40
2022-12-19T00:51:08.549Z,16.23
2022-12-19T00:53:35.836Z,17.85
2022-12-19T00:56:08.451Z,13.13
2022-12-19T00:58:35.832Z,16.38
2022-12-19T01:01:10.842Z,12.90
2022-12-19T01:03:38.316Z,12.63
2022-12-19T01:06:06.150Z,13.43
2022-12-19T01:08:33.697Z,11.17
2022-12-19T01:11:01.050Z,17.70
2022-12-19T01:13:29.131Z,15.30
2022-12-19T01:15:56.577Z,16.42
2022-12-19T01:18:23.837Z,16.27
2022-12-19T01:20:51.056Z,16.73
2022-12-19T01:23:18.448Z,12.60
2022-12-19T01:25:49.242Z,13.18
2022-12-19T01:28:16.470Z,14.77
2022-12-19T01:30:43.935Z,17.23
2022-12-19T01:33:12.603Z,15.47
2022-12-19T01:35:40.253Z,10.82
2022-12-19T01:38:08.430Z,13.85
2022-12-19T01:40:36.385Z,12.57
2022-12-19T01:43:03.701Z,11.32
2022-12-19T01:45:34.848Z,17.77
2022-12-19T01:48:05.432Z,13.75
2022-12-19T01:50:48.144Z,16.58
2022-12-19T01:53:31.898Z,17.77
2022-12-19T01:55:59.282Z,16.58
2022-12-19T01:58:26.543Z,11.97
2022-12-19T02:00:53.839Z,16.55
2022-12-19T02:03:24.427Z,19.50
2022-12-19T02:05:52.666Z,13.40
2022-12-19T02:08:20.409Z,14.65
2022-12-19T02:10:47.701Z,12.70
2022-12-19T02:13:15.836Z,18.67
2022-12-19T02:15:55.940Z,15.93
2022-12-19T02:18:24.084Z,14.60
2022-12-19T02:20:51.378Z,16.52
2022-12-19T02:23:27.891Z,14.87
2022-12-19T02:26:18.635Z,16.17
2022-12-19T02:28:48.939Z,13.82
2022-12-19T02:31:22.885Z,15.50
2022-12-19T02:33:56.173Z,15.57
2022-12-19T02:36:33.975Z,16.60
2022-12-19T02:39:12.378Z,13.48
2022-12-19T02:41:44.411Z,15.45
2022-12-19T02:44:21.989Z,12.35
2022-12-19T02:46:50.121Z,13.77
2022-12-19T02:49:20.068Z,14.57
2022-12-19T02:51:57.958Z,10.07
2022-12-19T02:54:25.555Z,11.68
2022-12-19T02:57:00.293Z,12.25
2022-12-19T02:59:53.174Z,15.52
2022-12-19T03:02:36.366Z,12.80
2022-12-19T03:05:11.647Z,11.82
2022-12-19T03:07:41.965Z,11.20
2022-12-19T03:10:12.326Z,15.48
2022-12-19T03:12:44.361Z,12.35
2022-12-19T03:15:11.788Z,11.37
2022-12-19T03:17:39.572Z,14.07
2022-12-19T03:20:09.789Z,12.63
2022-12-19T03:22:37.026Z,13.25
2022-12-19T03:25:04.362Z,13.45
2022-12-19T03:27:34.008Z,11.80
2022-12-19T03:30:06.800Z,12.55
2022-12-19T03:32:35.288Z,10.73
2022-12-19T03:35:05.929Z,12.70
2022-12-19T03:37:35.459Z,9.73
2022-12-19T03:40:04.015Z,11.17
2022-12-19T03:42:51.953Z,12.68
2022-12-19T03:45:24.267Z,10.52
2022-12-19T03:47:59.293Z,9.57
2022-12-19T03:50:31.404Z,9.88
2022-12-19T03:52:58.627Z,8.83
2022-12-19T03:55:37.191Z,11.45
2022-12-19T03:58:12.879Z,11.25
2022-12-19T04:00:42.260Z,10.43
2022-12-19T04:03:10.596Z,10.77
2022-12-19T04:05:39.239Z,10.93
2022-12-19T04:08:09.145Z,12.43
2022-12-19T04:10:40.394Z,7.03
2022-12-19T04:13:15.893Z,10.45
2022-12-19T04:15:50.893Z,9.75
2022-12-19T04:18:19.094Z,8.67
2022-12-19T04:20:50.193Z,8.38
2022-12-19T04:23:20.919Z,8.43
2022-12-19T04:25:49.923Z,9.48
2022-12-19T04:28:28.666Z,10.10
2022-12-19T04:30:56.018Z,7.90
2022-12-19T04:33:23.327Z,9.77
2022-12-19T04:35:50.674Z,8.13
2022-12-19T04:38:17.902Z,10.02
2022-12-19T04:40:45.171Z,10.35
2022-12-19T04:43:12.436Z,7.60
2022-12-19T04:45:42.094Z,10.40
2022-12-19T04:48:09.855Z,7.95
2022-12-19T04:50:37.148Z,9.05
2022-12-19T04:53:05.024Z,9.02
2022-12-19T04:55:32.331Z,9.47
2022-12-19T04:57:59.634Z,9.40
2022-12-19T05:00:26.913Z,9.40
2022-12-19T05:02:54.249Z,7.10
2022-12-19T05:05:21.584Z,9.32
2022-12-19T05:07:48.907Z,7.82
2022-12-19T05:10:16.167Z,7.93
2022-12-19T05:12:43.453Z,7.63
2022-12-19T05:15:11.844Z,8.38
2022-12-19T05:17:39.150Z,7.47
2022-12-19T05:20:07.057Z,7.10
2022-12-19T05:22:34.323Z,8.15
2022-12-19T05:25:01.589Z,8.57
2022-12-19T05:27:28.895Z,9.65
2022-12-19T05:29:56.084Z,7.65
2022-12-19T05:32:23.468Z,9.38
2022-12-19T05:34:50.658Z,7.72
2022-12-19T05:37:18.002Z,9.68
2022-12-19T05:39:45.228Z,7.95
2022-12-19T05:42:12.806Z,7.78
2022-12-19T05:44:40.231Z,8.00
2022-12-19T05:47:08.948Z,7.90
2022-12-19T05:49:36.578Z,6.78
2022-12-19T05:52:03.828Z,9.00
2022-12-19T05:54:31.307Z,9.20
2022-12-19T05:56:58.567Z,7.03
2022-12-19T05:59:27.054Z,9.23
2022-12-19T06:01:54.688Z,6.53
2022-12-19T06:04:22.008Z,9.60
2022-12-19T06:06:49.278Z,7.63
2022-12-19T06:09:17.034Z,8.52
2022-12-19T06:11:44.319Z,8.90
2022-12-19T06:14:11.595Z,9.90
2022-12-19T06:16:38.899Z,9.07
2022-12-19T06:19:06.176Z,9.40
2022-12-19T06:21:33.470Z,13.82
2022-12-19T06:24:00.801Z,8.00
2022-12-19T06:26:28.192Z,6.78
2022-12-19T06:28:55.763Z,8.57
2022-12-19T06:31:23.868Z,8.60
2022-12-19T06:33:52.469Z,8.77
2022-12-19T06:36:24.027Z,10.35
2022-12-19T06:38:51.753Z,7.93
2022-12-19T06:41:38.533Z,9.15
2022-12-19T06:44:07.231Z,9.45
2022-12-19T06:46:35.674Z,9.90
2022-12-19T06:49:02.964Z,6.65
2022-12-19T06:51:30.423Z,8.30
2022-12-19T06:53:57.971Z,9.65
2022-12-19T06:56:25.229Z,9.55
2022-12-19T06:58:52.982Z,10.20
2022-12-19T07:01:21.116Z,9.75
2022-12-19T07:03:49.457Z,6.20
2022-12-19T07:06:16.706Z,7.95
2022-12-19T07:08:44.021Z,9.60
2022-12-19T07:11:11.253Z,10.25
2022-12-19T07:13:38.491Z,9.10
2022-12-19T07:16:06.069Z,9.20
2022-12-19T07:18:36.511Z,7.35
2022-12-19T07:21:04.089Z,10.13
2022-12-19T07:23:31.453Z,10.02
2022-12-19T07:25:58.857Z,8.80
2022-12-19T07:28:26.172Z,6.65
2022-12-19T07:30:53.419Z,8.88
2022-12-19T07:33:21.991Z,8.32
2022-12-19T07:35:49.573Z,9.25
2022-12-19T07:38:16.843Z,8.35
2022-12-19T07:40:44.110Z,8.50
2022-12-19T07:43:11.335Z,7.65
2022-12-19T07:45:39.544Z,7.97
2022-12-19T07:48:07.345Z,8.57
2022-12-19T07:50:34.957Z,8.48
2022-12-19T07:53:02.420Z,9.38
2022-12-19T07:55:29.827Z,6.15
2022-12-19T07:57:57.132Z,5.97
2022-12-19T08:00:24.457Z,7.32
2022-12-19T08:02:51.961Z,7.95
2022-12-19T08:05:19.343Z,8.63
2022-12-19T08:07:46.602Z,8.15
2022-12-19T08:10:15.071Z,8.55
2022-12-19T08:12:42.687Z,7.78
2022-12-19T08:15:11.331Z,5.50
2022-12-19T08:17:38.852Z,7.65
2022-12-19T08:20:07.556Z,7.07
2022-12-19T08:22:35.101Z,7.60
2022-12-19T08:25:02.359Z,7.35
2022-12-19T08:27:29.677Z,8.50
2022-12-19T08:29:56.939Z,8.80
2022-12-19T08:32:24.207Z,6.78
2022-12-19T08:34:51.686Z,6.72
2022-12-19T08:37:18.935Z,8.00
2022-12-19T08:39:46.223Z,8.38
2022-12-19T08:42:13.431Z,7.93
2022-12-19T08:44:40.701Z,7.35
2022-12-19T08:47:08.957Z,8.13
2022-12-19T08:49:36.787Z,7.68
2022-12-19T08:52:04.048Z,8.27
2022-12-19T08:54:31.391Z,8.63
2022-12-19T08:56:58.688Z,8.98
2022-12-19T08:59:31.198Z,8.88
2022-12-19T09:02:01.940Z,8.10
2022-12-19T09:05:57.238Z,8.65
2022-12-19T09:07:17.460Z,7.43
2022-12-19T09:09:45.179Z,7.68
2022-12-19T09:12:14.409Z,7.25
2022-12-19T09:14:41.760Z,7.25
2022-12-19T09:17:10.282Z,8.30
2022-12-19T09:19:37.704Z,7.55
2022-12-19T09:22:05.610Z,6.80
2022-12-19T09:24:32.939Z,7.65
2022-12-19T09:27:00.197Z,6.97
2022-12-19T09:29:33.523Z,6.93
2022-12-19T09:32:02.649Z,6.28
2022-12-19T09:34:33.102Z,5.82
2022-12-19T09:37:15.976Z,6.20
2022-12-19T09:39:45.501Z,7.13
2022-12-19T09:42:41.185Z,7.10
2022-12-19T09:45:32.565Z,6.55
2022-12-19T09:48:00.937Z,5.93
2022-12-19T09:50:31.289Z,8.05
2022-12-19T09:53:01.301Z,6.97
2022-12-19T09:55:40.111Z,7.13
2022-12-19T09:58:26.169Z,6.28
2022-12-19T10:00:59.640Z,6.68
2022-12-19T10:03:40.282Z,7.45
2022-12-19T10:07:06.861Z,5.28
2022-12-19T10:10:57.336Z,6.07
2022-12-19T10:12:38.878Z,5.75
2022-12-19T10:14:53.607Z,6.05
2022-12-19T10:17:25.161Z,6.63
2022-12-19T10:20:04.305Z,6.88
2022-12-19T10:22:41.576Z,6.28
2022-12-19T10:25:20.346Z,6.85
2022-12-19T10:28:12.754Z,6.53
2022-12-19T10:30:44.914Z,5.55
2022-12-19T10:33:33.101Z,7.55
2022-12-19T10:36:03.216Z,6.30
2022-12-19T10:38:51.691Z,5.35
2022-12-19T10:41:26.701Z,5.80
2022-12-19T10:44:02.337Z,5.10
2022-12-19T10:46:37.085Z,5.05
2022-12-19T10:49:13.301Z,5.32
2022-12-19T10:51:40.698Z,6.50
2022-12-19T10:54:07.923Z,5.90
2022-12-19T10:56:38.004Z,5.82
2022-12-19T10:59:16.137Z,6.72
2022-12-19T11:01:44.421Z,5.82
2022-12-19T11:04:15.371Z,6.80
2022-12-19T11:06:42.633Z,5.65
2022-12-19T11:09:19.044Z,6.40
2022-12-19T11:13:09.947Z,6.70
2022-12-19T11:19:58.131Z,5.72
2022-12-19T11:27:37.699Z,5.43
2022-12-19T11:29:25.302Z,5.47
2022-12-19T11:29:33.109Z,6.47
2022-12-19T11:30:09.730Z,5.78
2022-12-19T11:32:41.506Z,6.80
2022-12-19T11:35:16.650Z,5.80
2022-12-19T11:37:47.667Z,5.45
2022-12-19T11:40:18.161Z,5.47
2022-12-19T11:42:45.394Z,5.20
2022-12-19T11:45:15.584Z,6.47
2022-12-19T11:47:45.025Z,5.13
2022-12-19T11:50:15.585Z,6.75
2022-12-19T11:55:53.850Z,5.68
2022-12-19T11:58:23.486Z,5.10
2022-12-19T12:00:59.288Z,4.72
2022-12-19T12:03:26.576Z,5.03
2022-12-19T12:05:56.522Z,5.65
2022-12-19T12:09:57.687Z,5.20
2022-12-19T12:17:08.310Z,5.40
2022-12-19T12:19:16.310Z,6.15
2022-12-19T12:31:00.548Z,5.10
2022-12-19T12:31:27.902Z,4.80
2022-12-19T12:31:51.534Z,5.32
2022-12-19T12:32:00.978Z,4.78
2022-12-19T12:32:03.524Z,5.13
2022-12-19T12:35:54.429Z,4.55
2022-12-19T12:36:00.035Z,4.95
2022-12-19T12:40:51.091Z,4.95
2022-12-19T12:43:26.953Z,4.85
2022-12-19T12:45:54.258Z,5.20
2022-12-19T12:48:30.817Z,5.03
2022-12-19T12:50:59.709Z,5.00
2022-12-19T12:53:28.868Z,5.20
2022-12-19T12:55:57.683Z,4.78
2022-12-19T12:58:43.682Z,4.55
2022-12-19T13:01:13.102Z,5.05
2022-12-19T13:03:42.288Z,5.30
2022-12-19T13:06:26.084Z,5.95
2022-12-19T13:08:56.602Z,5.22
2022-12-19T13:11:45.635Z,4.97
2022-12-19T13:14:34.413Z,4.90
2022-12-19T13:17:03.458Z,5.53
2022-12-19T13:19:32.061Z,4.55
2022-12-19T13:22:05.363Z,6.07
2022-12-19T13:24:40.119Z,5.05
2022-12-19T13:27:19.408Z,4.70
2022-12-19T13:30:07.207Z,4.47
2022-12-19T13:32:54.473Z,5.00
2022-12-19T13:37:04.458Z,5.05
2022-12-19T13:40:00.880Z,5.40
2022-12-19T13:41:48.132Z,4.72
2022-12-19T13:44:19.197Z,5.13
2022-12-19T13:46:47.561Z,4.20
2022-12-19T13:49:28.913Z,5.10
2022-12-19T13:51:59.787Z,5.35
2022-12-19T13:54:34.962Z,5.70
2022-12-19T13:57:08.042Z,5.28
2022-12-19T13:59:38.585Z,4.50
2022-12-19T14:02:18.652Z,4.57
2022-12-19T14:04:46.208Z,6.47
2022-12-19T14:07:27.402Z,4.57
2022-12-19T14:11:33.179Z,3.88
2022-12-19T14:13:56.758Z,4.47
2022-12-19T14:15:58.602Z,4.55
2022-12-19T14:18:42.935Z,3.70
2022-12-19T14:22:05.842Z,4.38
2022-12-19T14:24:10.110Z,4.30
2022-12-19T14:28:19.528Z,4.47
2022-12-19T14:29:45.466Z,3.90
2022-12-19T14:33:47.268Z,4.60
2022-12-19T14:36:12.599Z,3.92
2022-12-19T14:39:25.923Z,3.33
2022-12-19T14:41:07.314Z,4.20
2022-12-19T14:43:58.887Z,4.85
2022-12-19T14:53:08.396Z,4.45
2022-12-19T14:54:04.030Z,4.28
2022-12-19T14:54:29.348Z,3.38
2022-12-19T14:56:13.076Z,3.50
2022-12-19T14:58:50.827Z,3.42
2022-12-19T15:01:10.369Z,4.47
2022-12-19T15:03:44.459Z,3.40
2022-12-19T15:07:09.740Z,4.27
2022-12-19T15:11:00.555Z,3.25
2022-12-19T15:14:57.777Z,4.72
2022-12-19T15:15:19.952Z,4.03
2022-12-19T15:17:48.098Z,4.50
2022-12-19T15:20:15.574Z,5.18
2022-12-19T15:22:43.139Z,4.47
2022-12-19T15:25:36.100Z,4.05
2022-12-19T15:28:02.183Z,3.83
2022-12-19T15:30:31.668Z,3.90
2022-12-19T15:32:58.946Z,4.60
2022-12-19T15:35:26.190Z,4.03
2022-12-19T15:37:53.437Z,4.45
2022-12-19T15:40:20.718Z,4.70
2022-12-19T15:42:51.113Z,4.00
2022-12-19T15:45:21.299Z,3.35
2022-12-19T15:47:48.800Z,3.47
2022-12-19T15:50:16.115Z,3.45
2022-12-19T15:52:43.360Z,4.32
2022-12-19T15:55:17.518Z,3.28
2022-12-19T15:57:49.089Z,3.63
2022-12-19T16:00:18.562Z,4.00
2022-12-19T16:05:33.500Z,4.47
2022-12-19T16:08:00.862Z,4.55
2022-12-19T16:10:28.202Z,4.30
2022-12-19T16:12:57.524Z,5.00
2022-12-19T16:15:25.419Z,3.92
2022-12-19T16:17:52.862Z,3.97
2022-12-19T16:20:22.688Z,4.20
2022-12-19T16:22:49.971Z,4.25
2022-12-19T16:25:17.358Z,4.00
2022-12-19T16:27:44.834Z,4.22
2022-12-19T16:30:18.556Z,3.63
2022-12-19T16:32:46.841Z,4.10
2022-12-19T16:35:20.331Z,4.95
2022-12-19T16:37:51.418Z,4.38
2022-12-19T16:40:19.737Z,4.57
2022-12-19T16:42:47.869Z,4.25
2022-12-19T16:45:19.147Z,4.47
2022-12-19T16:47:47.321Z,4.40
2022-12-19T16:50:25.144Z,4.75
2022-12-19T16:52:53.218Z,3.60
2022-12-19T16:55:20.814Z,4.13
2022-12-19T16:57:49.882Z,4.45
2022-12-19T17:00:21.671Z,4.50
2022-12-19T17:02:53.923Z,4.43
2022-12-19T17:05:26.273Z,3.72
2022-12-19T17:07:54.124Z,3.90
2022-12-19T17:10:26.105Z,5.13
2022-12-19T17:12:54.071Z,3.22
2022-12-19T17:15:29.514Z,4.13
2022-12-19T17:17:58.461Z,3.88
2022-12-19T17:20:27.455Z,4.25
2022-12-19T17:22:54.933Z,4.25
2022-12-19T17:25:23.760Z,4.38
2022-12-19T17:27:51.919Z,4.22
2022-12-19T17:30:19.735Z,3.88
2022-12-19T17:32:48.524Z,4.03
2022-12-19T17:35:27.256Z,3.88
2022-12-19T17:37:55.839Z,3.80
2022-12-19T17:40:25.874Z,3.13
2022-12-19T17:42:53.302Z,3.58
2022-12-19T17:45:22.248Z,4.20
2022-12-19T17:47:49.980Z,4.03
2022-12-19T17:50:22.366Z,4.53
2022-12-19T17:52:50.170Z,3.50
2022-12-19T17:55:19.846Z,4.03
2022-12-19T17:57:47.244Z,3.88
2022-12-19T18:00:15.251Z,3.88
2022-12-19T18:02:42.674Z,4.90
2022-12-19T18:05:17.610Z,3.38
2022-12-19T18:07:45.012Z,4.18
2022-12-19T18:10:20.729Z,4.55
2022-12-19T18:12:48.042Z,4.45
2022-12-19T18:15:15.483Z,5.05
2022-12-19T18:17:43.343Z,5.07
2022-12-19T18:20:19.418Z,4.85
2022-12-19T18:22:47.116Z,5.75
2022-12-19T18:25:24.636Z,5.03
2022-12-19T18:27:52.276Z,5.03
2022-12-19T18:30:20.960Z,4.75
2022-12-19T18:32:57.268Z,4.70
2022-12-19T18:35:35.874Z,4.15
2022-12-19T18:38:09.503Z,5.13
2022-12-19T18:40:36.781Z,3.97
2022-12-19T18:43:04.082Z,4.22
2022-12-19T18:45:35.271Z,4.00
2022-12-19T18:48:03.353Z,4.60
2022-12-19T18:50:30.630Z,4.55
2022-12-19T18:52:58.233Z,3.78
2022-12-19T18:55:27.102Z,4.40
2022-12-19T18:57:55.561Z,4.63
2022-12-19T19:00:24.649Z,3.92
2022-12-19T19:02:52.064Z,4.57
2022-12-19T19:05:24.459Z,4.55
2022-12-19T19:07:51.961Z,4.95
2022-12-19T19:10:22.204Z,4.75
2022-12-19T19:13:02.705Z,4.55
2022-12-19T19:15:34.330Z,4.45
2022-12-19T19:18:05.991Z,4.93
2022-12-19T19:20:36.281Z,4.68
2022-12-19T19:23:04.962Z,4.28
2022-12-19T19:25:32.456Z,3.70
2022-12-19T19:28:00.122Z,4.32
2022-12-19T19:30:27.362Z,4.40
2022-12-19T19:33:00.330Z,4.32
2022-12-19T19:35:27.716Z,5.03
2022-12-19T19:37:56.486Z,3.92
2022-12-19T19:40:23.765Z,3.60
2022-12-19T19:42:51.030Z,4.33
2022-12-19T19:45:18.384Z,4.50
2022-12-19T19:47:45.875Z,4.07
2022-12-19T19:50:13.387Z,4.38
2022-12-19T19:52:40.792Z,3.92
2022-12-19T19:55:09.449Z,4.10
2022-12-19T19:57:36.916Z,4.30
2022-12-19T20:00:08.783Z,5.20
2022-12-19T20:02:42.235Z,4.10
2022-12-19T20:05:10.091Z,4.75
2022-12-19T20:07:37.515Z,4.28
2022-12-19T20:10:05.491Z,3.72
2022-12-19T20:12:32.773Z,4.60
2022-12-19T20:14:59.991Z,3.88
2022-12-19T20:17:27.289Z,4.68
2022-12-19T20:19:54.745Z,4.30
2022-12-19T20:22:22.093Z,4.22
2022-12-19T20:24:49.317Z,4.60
2022-12-19T20:27:16.774Z,4.20
2022-12-19T20:29:44.138Z,5.03
2022-12-19T20:32:11.416Z,4.37
2022-12-19T20:34:38.685Z,4.65
2022-12-19T20:37:05.957Z,5.20
2022-12-19T20:39:34.414Z,5.03
2022-12-19T20:42:01.821Z,4.70
2022-12-19T20:44:29.154Z,3.90
2022-12-19T20:46:56.718Z,5.18
2022-12-19T20:49:24.395Z,4.07
2022-12-19T20:51:51.688Z,4.57
2022-12-19T20:54:19.228Z,4.00
2022-12-19T20:56:46.520Z,3.63
2022-12-19T20:59:13.796Z,4.38
2022-12-19T21:01:41.281Z,5.05
2022-12-19T21:04:08.962Z,4.95
2022-12-19T21:06:37.982Z,4.40
2022-12-19T21:09:06.189Z,4.70
2022-12-19T21:11:35.627Z,4.03
2022-12-19T21:14:03.109Z,4.75
2022-12-19T21:16:30.853Z,4.90
2022-12-19T21:18:58.242Z,4.35
2022-12-19T21:21:26.586Z,4.90
2022-12-19T21:23:54.543Z,4.70
2022-12-19T21:26:22.525Z,4.35
2022-12-19T21:28:49.903Z,4.90
2022-12-19T21:31:19.177Z,4.55
2022-12-19T21:33:47.168Z,4.93
2022-12-19T21:36:18.920Z,5.22
2022-12-19T21:38:49.991Z,5.18
2022-12-19T21:41:19.205Z,4.88
2022-12-19T21:43:52.378Z,4.93
2022-12-19T21:46:20.256Z,5.20
2022-12-19T21:48:51.297Z,5.22
2022-12-19T21:51:20.193Z,5.22
2022-12-19T21:53:47.697Z,5.15
2022-12-19T21:56:14.904Z,5.07
2022-12-19T21:58:42.201Z,4.60
2022-12-19T22:01:11.737Z,4.88
2022-12-19T22:03:39.630Z,4.95
2022-12-19T22:06:08.733Z,4.68
2022-12-19T22:08:36.724Z,4.15
2022-12-19T22:11:04.052Z,4.25
2022-12-19T22:13:31.511Z,5.13
2022-12-19T22:16:02.376Z,5.05
2022-12-19T22:18:30.156Z,5.05
2022-12-19T22:20:59.147Z,3.85
2022-12-19T22:23:26.588Z,4.17
2022-12-19T22:26:01.315Z,3.95
2022-12-19T22:28:30.203Z,4.63
2022-12-19T22:30:57.869Z,4.13
2022-12-19T22:33:25.203Z,3.95
2022-12-19T22:35:52.458Z,4.53
2022-12-19T22:38:19.891Z,4.28
2022-12-19T22:40:47.133Z,4.10
2022-12-19T22:43:14.556Z,3.88
2022-12-19T22:45:41.892Z,4.10
2022-12-19T22:48:09.197Z,3.17
2022-12-19T22:50:36.850Z,4.20
2022-12-19T22:53:06.955Z,4.28
2022-12-19T22:55:38.886Z,4.70
2022-12-19T22:58:06.384Z,4.63
2022-12-19T23:00:33.570Z,4.20
2022-12-19T23:03:00.935Z,5.40
2022-12-19T23:05:28.428Z,3.92
2022-12-19T23:07:55.616Z,4.97
2022-12-19T23:10:22.864Z,5.07
2022-12-19T23:12:50.119Z,4.32
2022-12-19T23:15:17.413Z,4.38
2022-12-19T23:17:44.624Z,4.95
2022-12-19T23:20:12.102Z,4.30
2022-12-19T23:22:39.408Z,4.30
2022-12-19T23:25:07.088Z,3.42
2022-12-19T23:27:34.347Z,4.55
2022-12-19T23:30:01.576Z,4.40
2022-12-19T23:32:28.807Z,3.90
2022-12-19T23:34:56.086Z,4.63
2022-12-19T23:37:23.302Z,3.80
2022-12-19T23:39:50.677Z,4.40
2022-12-19T23:42:17.897Z,4.18
2022-12-19T23:44:45.279Z,4.22
2022-12-19T23:47:12.925Z,4.55
2022-12-19T23:49:40.683Z,4.78
2022-12-19T23:52:07.911Z,4.88
2022-12-19T23:54:35.321Z,5.10
2022-12-19T23:57:02.569Z,4.70
2022-12-19T23:59:29.823Z,3.88
